Time;durP1;ratioP1;P1;durP2;ratioP2;P2;SDS_P1;SDS_P2;PMS_P1;PMS_P2;Temp;Humidity;BMP_temperature;BMP_pressure;BME280_temperature;BME280_humidity;BME280_pressure;Samples;Min_cycle;Max_cycle;Signal;HPM_P1;HPM_P2
2022/07/05 00:00:56;;;;;;;5.47;4.80;;;16.70;15.40;;;;;;5095907;28;20199;-68
2022/07/05 00:03:22;;;;;;;6.37;4.87;;;16.60;19.30;;;;;;5095881;28;20262;-68
2022/07/05 00:05:48;;;;;;;10.63;6.40;;;16.60;22.10;;;;;;5095822;28;20657;-68
2022/07/05 00:08:13;;;;;;;9.37;6.00;;;16.60;25.00;;;;;;5095348;28;20222;-68
2022/07/05 00:10:39;;;;;;;8.37;4.30;;;16.50;27.10;;;;;;5095270;28;20207;-68
2022/07/05 00:13:06;;;;;;;9.07;6.40;;;16.50;29.60;;;;;;5095479;28;20195;-68
2022/07/05 00:15:32;;;;;;;9.43;6.80;;;16.50;30.10;;;;;;5095476;28;20290;-68
2022/07/05 00:17:57;;;;;;;13.73;6.53;;;16.50;32.90;;;;;;5095593;28;20681;-69
2022/07/05 00:20:24;;;;;;;8.40;7.47;;;16.40;36.10;;;;;;5095499;28;20274;-67
2022/07/05 00:22:49;;;;;;;15.40;9.60;;;16.40;40.00;;;;;;5095412;28;20203;-68
2022/07/05 00:25:15;;;;;;;6.17;5.60;;;16.30;39.10;;;;;;5095106;28;20171;-68
2022/07/05 00:27:41;;;;;;;8.10;5.03;;;16.40;38.80;;;;;;5095255;28;20179;-68
2022/07/05 00:30:08;;;;;;;11.27;6.27;;;16.40;37.80;;;;;;5095389;28;20221;-68
2022/07/05 00:32:34;;;;;;;7.00;4.67;;;16.40;37.50;;;;;;5095449;28;20172;-67
2022/07/05 00:35:00;;;;;;;5.67;4.20;;;16.40;35.10;;;;;;5095188;28;20703;-67
2022/07/05 00:37:26;;;;;;;5.20;4.60;;;16.50;32.70;;;;;;5094983;28;20698;-67
2022/07/05 00:39:51;;;;;;;6.83;4.33;;;16.50;30.20;;;;;;5094450;28;20195;-67
2022/07/05 00:42:17;;;;;;;5.17;3.70;;;16.60;30.00;;;;;;5095002;28;20176;-67
2022/07/05 00:44:43;;;;;;;8.30;4.00;;;16.50;28.80;;;;;;5094775;28;20168;-67
2022/07/05 00:47:10;;;;;;;5.13;3.93;;;16.50;32.90;;;;;;5093757;28;20224;-67
2022/07/05 00:49:37;;;;;;;5.73;4.07;;;16.40;36.90;;;;;;5094898;28;20179;-67
2022/07/05 00:52:04;;;;;;;8.87;3.83;;;16.40;38.00;;;;;;5094774;28;20208;-67
2022/07/05 00:54:33;;;;;;;6.43;4.07;;;16.40;42.20;;;;;;5094855;28;20168;-67
2022/07/05 00:56:59;;;;;;;5.20;3.43;;;16.40;41.30;;;;;;5094605;28;20211;-68
2022/07/05 00:59:26;;;;;;;8.40;4.00;;;16.40;41.90;;;;;;5094824;28;20179;-67
2022/07/05 01:01:52;;;;;;;8.03;5.00;;;16.40;42.70;;;;;;5094611;28;20172;-68
2022/07/05 01:04:17;;;;;;;5.23;4.73;;;16.30;44.60;;;;;;5094506;28;20168;-68
2022/07/05 01:06:46;;;;;;;7.30;5.07;;;16.20;45.70;;;;;;5094387;28;20229;-67
2022/07/05 01:09:13;;;;;;;6.57;4.40;;;16.20;51.30;;;;;;5094457;28;20227;-68
2022/07/05 01:11:40;;;;;;;8.47;5.17;;;16.20;52.40;;;;;;5094539;28;20164;-68
2022/07/05 01:14:10;;;;;;;10.47;5.90;;;16.20;50.70;;;;;;5094249;28;20168;-68
2022/07/05 01:16:38;;;;;;;11.17;6.10;;;16.20;52.70;;;;;;5094543;28;20212;-68
2022/07/05 01:19:06;;;;;;;11.07;5.50;;;16.20;57.70;;;;;;5094141;28;20229;-68
2022/07/05 01:21:37;;;;;;;7.03;5.00;;;16.10;58.50;;;;;;5093817;28;20176;-69
2022/07/05 01:24:03;;;;;;;9.60;5.07;;;16.00;65.30;;;;;;5094192;28;20556;-68
2022/07/05 01:26:29;;;;;;;6.00;4.63;;;16.00;70.10;;;;;;5094478;28;20617;-67
2022/07/05 01:28:55;;;;;;;5.90;4.33;;;16.00;74.20;;;;;;5094117;28;20160;-68
2022/07/05 01:31:21;;;;;;;6.10;4.80;;;16.00;72.00;;;;;;5094066;28;20171;-68
2022/07/05 01:33:47;;;;;;;7.07;4.77;;;16.10;65.70;;;;;;5093959;28;20270;-68
2022/07/05 01:36:14;;;;;;;5.97;5.00;;;16.00;62.20;;;;;;5093664;28;20559;-68
2022/07/05 01:38:40;;;;;;;6.17;4.67;;;16.00;62.10;;;;;;5093024;28;20525;-68
2022/07/05 01:41:06;;;;;;;7.77;4.60;;;15.90;69.00;;;;;;5094053;28;20172;-68
2022/07/05 01:43:31;;;;;;;4.83;4.30;;;16.00;67.10;;;;;;5093689;28;20194;-68
2022/07/05 01:45:59;;;;;;;6.40;4.80;;;16.10;65.20;;;;;;5093891;28;20168;-68
2022/07/05 01:48:28;;;;;;;9.00;5.03;;;16.10;63.30;;;;;;5093678;28;20178;-67
2022/07/05 01:50:59;;;;;;;8.73;4.70;;;16.20;65.00;;;;;;5092691;28;20559;-67
2022/07/05 01:53:28;;;;;;;7.10;4.70;;;16.20;65.10;;;;;;5092422;28;20542;-67
2022/07/05 01:55:56;;;;;;;6.20;4.60;;;16.20;62.90;;;;;;5093632;28;20246;-67
2022/07/05 01:58:24;;;;;;;7.10;4.23;;;16.20;57.00;;;;;;5093637;28;20168;-67
2022/07/05 02:00:52;;;;;;;6.77;4.80;;;16.20;59.70;;;;;;5093492;28;20190;-67
2022/07/05 02:03:18;;;;;;;6.77;4.87;;;16.30;58.10;;;;;;5093543;28;20172;-68
2022/07/05 02:05:45;;;;;;;5.43;4.90;;;16.20;58.30;;;;;;5093309;28;20194;-67
2022/07/05 02:08:11;;;;;;;8.27;5.27;;;16.20;59.00;;;;;;5093171;28;20224;-67
2022/07/05 02:10:38;;;;;;;5.40;4.73;;;16.10;58.80;;;;;;5092116;28;20585;-67
2022/07/05 02:13:04;;;;;;;5.53;4.67;;;16.10;68.10;;;;;;5093374;28;20164;-67
2022/07/05 02:15:37;;;;;;;7.53;5.13;;;16.00;67.20;;;;;;5093262;28;20179;-67
2022/07/05 02:18:04;;;;;;;6.77;5.30;;;16.10;66.90;;;;;;5093534;28;20183;-67
2022/07/05 02:20:30;;;;;;;7.37;5.10;;;16.10;62.40;;;;;;5093100;28;20176;-67
2022/07/05 02:22:56;;;;;;;5.50;5.00;;;16.00;64.70;;;;;;5093187;28;20182;-67
2022/07/05 02:25:22;;;;;;;7.03;5.17;;;15.90;67.80;;;;;;5093194;28;20171;-67
2022/07/05 02:27:48;;;;;;;8.03;5.13;;;15.80;73.90;;;;;;5093089;28;20186;-67
2022/07/05 02:30:14;;;;;;;6.60;4.73;;;15.80;72.10;;;;;;5093439;28;20252;-67
2022/07/05 02:32:41;;;;;;;6.50;5.90;;;15.80;71.60;;;;;;5093178;28;20171;-67
2022/07/05 02:35:08;;;;;;;10.97;5.43;;;15.80;68.40;;;;;;5092753;28;20754;-67
2022/07/05 02:37:34;;;;;;;9.10;5.60;;;15.80;69.90;;;;;;5093119;28;20196;-67
2022/07/05 02:40:00;;;;;;;5.20;4.73;;;15.70;70.20;;;;;;5091891;28;20176;-68
2022/07/05 02:42:26;;;;;;;5.83;5.33;;;15.70;70.20;;;;;;5092872;28;20168;-68
2022/07/05 02:44:51;;;;;;;6.97;5.70;;;15.70;73.00;;;;;;5091823;28;20506;-67
2022/07/05 02:47:17;;;;;;;9.87;5.67;;;15.70;74.30;;;;;;5093128;28;20640;-68
2022/07/05 02:49:42;;;;;;;6.10;5.57;;;15.60;77.40;;;;;;5092848;28;20693;-68
2022/07/05 02:52:08;;;;;;;8.57;6.00;;;15.60;76.90;;;;;;5092962;28;20188;-68
2022/07/05 02:54:34;;;;;;;8.47;6.03;;;15.60;78.20;;;;;;5093023;28;20175;-68
2022/07/05 02:57:00;;;;;;;6.70;5.63;;;15.60;74.90;;;;;;5091542;28;20214;-68
2022/07/05 02:59:26;;;;;;;7.93;6.00;;;15.60;79.20;;;;;;5093245;28;20175;-68
2022/07/05 03:01:51;;;;;;;10.43;5.80;;;15.60;79.90;;;;;;5094190;28;20678;-69
2022/07/05 03:04:17;;;;;;;10.63;5.53;;;15.50;79.20;;;;;;5096486;28;20179;-69
2022/07/05 03:06:43;;;;;;;6.97;5.93;;;15.60;81.20;;;;;;5096196;28;20561;-68
2022/07/05 03:09:10;;;;;;;11.17;6.10;;;15.60;79.40;;;;;;5096823;28;20222;-68
2022/07/05 03:11:35;;;;;;;8.40;6.90;;;15.60;77.50;;;;;;5096595;28;20164;-68
2022/07/05 03:14:01;;;;;;;6.67;5.67;;;15.60;76.50;;;;;;5096499;28;20237;-67
2022/07/05 03:16:27;;;;;;;7.70;5.97;;;15.60;78.30;;;;;;5096481;28;20588;-68
2022/07/05 03:18:52;;;;;;;6.27;5.70;;;15.50;80.50;;;;;;5096146;28;20168;-69
2022/07/05 03:21:18;;;;;;;9.77;6.83;;;15.50;82.00;;;;;;5096129;28;20175;-67
2022/07/05 03:23:44;;;;;;;10.83;6.90;;;15.50;79.00;;;;;;5096519;28;20176;-67
2022/07/05 03:26:09;;;;;;;8.00;6.60;;;15.50;81.60;;;;;;5096451;28;20174;-67
2022/07/05 03:28:35;;;;;;;8.17;6.50;;;15.40;84.10;;;;;;5096482;28;20208;-67
2022/07/05 03:31:01;;;;;;;7.40;6.57;;;15.50;82.10;;;;;;5094891;28;20171;-67
2022/07/05 03:33:26;;;;;;;8.90;6.60;;;15.40;84.90;;;;;;5095684;28;20696;-67
2022/07/05 03:35:52;;;;;;;8.57;7.00;;;15.40;84.10;;;;;;5094893;28;20217;-67
2022/07/05 03:38:18;;;;;;;9.50;6.43;;;15.40;85.70;;;;;;5096285;28;20654;-67
2022/07/05 03:40:44;;;;;;;10.73;6.53;;;15.40;83.70;;;;;;5095868;28;20164;-67
2022/07/05 03:43:09;;;;;;;9.63;7.03;;;15.40;81.50;;;;;;5095816;28;20631;-67
2022/07/05 03:45:35;;;;;;;9.67;7.27;;;15.40;80.20;;;;;;5095779;28;20204;-67
2022/07/05 03:48:01;;;;;;;8.60;6.07;;;15.40;79.00;;;;;;5095492;28;20174;-68
2022/07/05 03:50:27;;;;;;;9.30;6.77;;;15.50;80.30;;;;;;5095832;28;20663;-68
2022/07/05 03:52:53;;;;;;;9.63;7.20;;;15.60;77.50;;;;;;5095839;28;20172;-67
2022/07/05 03:55:19;;;;;;;9.77;6.77;;;15.70;76.60;;;;;;5095565;28;20176;-67
2022/07/05 03:57:45;;;;;;;8.93;6.70;;;15.90;73.80;;;;;;5095802;28;20222;-67
2022/07/05 04:00:12;;;;;;;9.87;6.23;;;16.20;62.20;;;;;;5095458;28;20704;-67
2022/07/05 04:02:37;;;;;;;9.57;5.83;;;16.50;52.40;;;;;;5095207;28;20184;-67
2022/07/05 04:05:04;;;;;;;7.90;5.57;;;16.90;34.00;;;;;;5095185;28;20176;-68
2022/07/05 04:07:29;;;;;;;8.27;6.07;;;17.10;20.10;;;;;;5095356;28;20177;-68
2022/07/05 04:09:55;;;;;;;9.80;5.60;;;17.50;2.20;;;;;;5094993;28;20207;-68
2022/07/05 04:12:21;;;;;;;12.13;5.67;;;17.90;1.00;;;;;;5095454;28;20631;-67
2022/07/05 04:14:46;;;;;;;6.87;5.50;;;18.20;1.00;;;;;;5094421;28;20627;-68
2022/07/05 04:17:12;;;;;;;6.93;5.30;;;18.60;1.00;;;;;;5095105;28;20300;-68
2022/07/05 04:19:37;;;;;;;7.80;5.15;;;18.80;1.00;;;;;;5095607;28;20176;-68
2022/07/05 04:22:04;;;;;;;6.00;4.95;;;19.00;1.00;;;;;;5094174;28;20650;-68
2022/07/05 04:24:29;;;;;;;9.30;4.90;;;19.20;1.00;;;;;;5093586;28;20187;-68
2022/07/05 04:26:55;;;;;;;9.55;5.05;;;19.60;1.00;;;;;;5095317;28;20172;-68
2022/07/05 04:29:20;;;;;;;7.75;4.63;;;20.30;1.00;;;;;;5095041;28;20217;-68
2022/07/05 04:31:46;;;;;;;8.80;4.80;;;20.70;99.90;;;;;;5094807;28;20175;-68
2022/07/05 04:34:12;;;;;;;6.65;4.25;;;21.10;1.00;;;;;;5094988;28;20167;-68
2022/07/05 04:36:40;;;;;;;4.50;4.10;;;21.40;99.90;;;;;;5094365;28;20208;-68
2022/07/05 04:39:06;;;;;;;5.80;4.43;;;21.70;1.00;;;;;;5094676;28;20255;-68
2022/07/05 04:41:32;;;;;;;6.00;4.00;;;22.50;1.00;;;;;;5094627;28;20273;-68
2022/07/05 04:43:58;;;;;;;5.25;3.88;;;23.30;99.90;;;;;;5094755;28;20168;-68
2022/07/05 04:46:23;;;;;;;6.18;3.85;;;24.10;2.00;;;;;;5094025;28;20259;-69
2022/07/05 04:48:49;;;;;;;9.23;3.53;;;24.20;99.90;;;;;;5094632;28;20658;-69
2022/07/05 04:51:15;;;;;;;7.45;4.00;;;24.00;1.00;;;;;;5094440;28;20196;-68
2022/07/05 04:53:41;;;;;;;13.00;4.05;;;24.70;99.90;;;;;;5094468;28;20187;-69
2022/07/05 04:56:07;;;;;;;4.63;3.80;;;25.20;1.00;;;;;;5094440;28;20298;-68
2022/07/05 04:58:33;;;;;;;5.47;3.55;;;25.70;1.00;;;;;;5093000;28;20245;-69
2022/07/05 05:00:59;;;;;;;4.25;3.70;;;25.80;1.00;;;;;;5093764;28;20167;-68
2022/07/05 05:03:24;;;;;;;3.90;3.50;;;26.10;1.00;;;;;;5094047;28;20519;-70
2022/07/05 05:05:50;;;;;;;5.95;3.58;;;25.70;99.90;;;;;;5094568;28;20186;-69
2022/07/05 05:08:16;;;;;;;6.80;3.90;;;26.20;1.00;;;;;;5093522;28;20224;-70
2022/07/05 05:10:41;;;;;;;5.03;3.40;;;26.60;99.90;;;;;;5093728;28;20183;-70
2022/07/05 05:13:07;;;;;;;7.20;3.58;;;27.60;99.90;;;;;;5094034;28;20243;-69
2022/07/05 05:15:33;;;;;;;6.70;3.40;;;28.10;99.90;;;;;;5093868;28;20214;-70
2022/07/05 05:17:58;;;;;;;6.18;3.28;;;28.80;99.90;;;;;;5093722;28;20597;-71
2022/07/05 05:20:25;;;;;;;4.95;3.45;;;29.50;99.90;;;;;;5093758;28;20195;-70
2022/07/05 05:22:50;;;;;;;4.93;3.40;;;29.60;99.90;;;;;;5092395;28;20176;-70
2022/07/05 05:25:16;;;;;;;8.65;3.75;;;29.80;99.90;;;;;;5092813;28;20182;-70
2022/07/05 05:27:47;;;;;;;7.68;3.33;;;29.70;99.90;;;;;;5093197;28;20194;-71
2022/07/05 05:30:13;;;;;;;8.00;4.00;;;29.50;99.90;;;;;;5093667;28;20203;-70
2022/07/05 05:32:39;;;;;;;6.55;3.85;;;30.00;99.90;;;;;;5093568;28;20164;-71
2022/07/05 05:35:06;;;;;;;6.28;3.80;;;30.30;99.90;;;;;;5093652;28;20501;-71
2022/07/05 05:37:44;;;;;;;7.03;3.65;;;31.10;99.90;;;;;;5092990;28;20290;-71
2022/07/05 05:40:10;;;;;;;5.28;3.40;;;31.50;99.90;;;;;;5093112;28;20175;-71
2022/07/05 05:42:36;;;;;;;6.57;4.22;;;31.00;99.90;;;;;;5093077;28;20179;-70
2022/07/05 05:45:01;;;;;;;9.38;3.40;;;30.10;99.90;;;;;;5092851;28;20293;-71
2022/07/05 05:47:27;;;;;;;8.98;3.45;;;30.80;99.90;;;;;;5092249;28;20253;-70
2022/07/05 05:49:53;;;;;;;6.45;3.47;;;31.20;99.90;;;;;;5093365;28;20160;-70
2022/07/05 05:52:18;;;;;;;6.78;3.60;;;31.10;99.90;;;;;;5092766;28;20681;-71
2022/07/05 05:54:44;;;;;;;7.40;3.38;;;31.20;99.90;;;;;;5092929;28;20163;-71
2022/07/05 05:57:09;;;;;;;8.30;3.38;;;31.20;99.90;;;;;;5092841;28;20302;-71
2022/07/05 05:59:35;;;;;;;11.52;6.45;;;31.80;99.90;;;;;;5092781;28;20175;-72
2022/07/05 06:02:00;;;;;;;6.60;3.50;;;32.00;99.90;;;;;;5092770;28;20210;-71
2022/07/05 06:04:26;;;;;;;8.88;3.47;;;31.70;99.90;;;;;;5092380;28;20233;-71
2022/07/05 06:06:51;;;;;;;10.23;3.47;;;32.00;99.90;;;;;;5082900;28;20613;-71
2022/07/05 06:09:17;;;;;;;13.80;7.45;;;31.80;99.90;;;;;;5071813;28;20228;-68
2022/07/05 06:11:43;;;;;;;12.32;3.95;;;32.30;99.90;;;;;;5074958;28;20180;-68
2022/07/05 06:14:09;;;;;;;9.07;3.50;;;32.90;99.90;;;;;;5074491;28;20183;-68
2022/07/05 06:16:34;;;;;;;7.00;3.30;;;32.70;93.10;;;;;;5075075;28;20238;-68
2022/07/05 06:19:00;;;;;;;13.55;3.70;;;33.50;91.50;;;;;;5096004;28;20571;-68
2022/07/05 06:21:25;;;;;;;9.15;3.25;;;33.80;97.80;;;;;;5106200;28;20262;-68
2022/07/05 06:23:51;;;;;;;9.65;3.50;;;31.80;80.50;;;;;;5105350;28;20174;-69
2022/07/05 06:26:17;;;;;;;7.22;3.00;;;32.20;92.90;;;;;;5095598;28;20221;-69
2022/07/05 06:28:42;;;;;;;13.52;5.38;;;32.40;90.40;;;;;;5108106;28;20261;-68
2022/07/05 06:31:08;;;;;;;13.70;5.88;;;32.90;84.10;;;;;;5098505;28;20232;-70
2022/07/05 06:33:33;;;;;;;8.75;4.32;;;33.10;78.90;;;;;;5102290;28;20646;-70
2022/07/05 06:35:59;;;;;;;8.07;3.15;;;33.50;69.00;;;;;;5100168;28;20242;-69
2022/07/05 06:38:24;;;;;;;23.10;7.38;;;33.90;67.10;;;;;;5097547;28;20176;-68
2022/07/05 06:40:50;;;;;;;20.17;7.80;;;34.10;60.00;;;;;;5112588;28;20684;-70
2022/07/05 06:43:15;;;;;;;4.82;3.05;;;34.40;57.80;;;;;;5103294;28;20566;-70
2022/07/05 06:45:41;;;;;;;9.43;3.42;;;34.10;56.10;;;;;;5105457;28;20175;-69
2022/07/05 06:48:09;;;;;;;5.68;3.67;;;33.70;51.40;;;;;;5110367;28;20179;-69
2022/07/05 06:50:37;;;;;;;7.35;3.47;;;33.70;52.70;;;;;;5099094;27;20188;-69
2022/07/05 06:53:04;;;;;;;4.93;2.60;;;33.70;54.90;;;;;;5110837;28;20213;-70
2022/07/05 06:55:29;;;;;;;32.20;10.63;;;33.90;54.00;;;;;;5101976;28;20195;-70
2022/07/05 06:58:07;;;;;;;8.68;3.60;;;34.60;46.90;;;;;;5102785;28;20292;-70
2022/07/05 07:00:33;;;;;;;7.63;2.47;;;34.40;44.80;;;;;;5112355;28;20171;-71
2022/07/05 07:02:59;;;;;;;37.83;10.20;;;34.30;46.40;;;;;;5100334;28;20167;-71
2022/07/05 07:05:25;;;;;;;7.10;3.10;;;34.50;42.70;;;;;;5107284;28;20164;-70
2022/07/05 07:10:36;;;;;;;11.07;4.97;;;34.60;39.40;;;;;;5097575;28;20179;-70
2022/07/05 07:13:02;;;;;;;23.38;9.90;;;33.70;40.40;;;;;;5110887;28;20172;-70
2022/07/05 07:15:29;;;;;;;11.68;4.82;;;34.00;43.00;;;;;;5104438;28;20171;-70
2022/07/05 07:17:55;;;;;;;9.23;2.92;;;34.60;42.00;;;;;;5101960;28;20204;-70
2022/07/05 07:20:21;;;;;;;8.15;3.78;;;34.00;39.80;;;;;;5109688;28;20603;-70
2022/07/05 07:22:46;;;;;;;5.88;3.67;;;33.40;42.60;;;;;;5095935;28;20217;-71
2022/07/05 07:25:12;;;;;;;7.75;3.15;;;33.70;41.90;;;;;;5107128;28;20179;-70
2022/07/05 07:27:49;;;;;;;11.30;3.47;;;33.70;41.90;;;;;;5106005;28;20183;-71
2022/07/05 07:30:17;;;;;;;6.78;3.10;;;34.50;42.50;;;;;;5100085;28;20259;-70
2022/07/05 07:32:44;;;;;;;22.92;7.93;;;35.10;38.70;;;;;;5112333;28;20171;-69
2022/07/05 07:35:10;;;;;;;12.30;7.15;;;34.30;35.30;;;;;;5101817;28;20253;-70
2022/07/05 07:37:35;;;;;;;5.53;3.28;;;33.70;35.20;;;;;;5105468;28;20298;-70
2022/07/05 07:40:02;;;;;;;6.78;3.30;;;34.40;38.80;;;;;;5107462;28;20209;-69
2022/07/05 07:42:28;;;;;;;5.97;3.63;;;35.00;32.80;;;;;;5098195;28;20176;-71
2022/07/05 07:44:54;;;;;;;6.15;3.30;;;34.50;31.00;;;;;;5110723;28;20493;-70
2022/07/05 07:47:20;;;;;;;6.75;3.55;;;33.60;29.90;;;;;;5093571;28;20172;-69
2022/07/05 07:49:45;;;;;;;8.02;3.42;;;34.80;33.40;;;;;;5094259;28;20172;-70
2022/07/05 07:52:11;;;;;;;7.57;3.40;;;34.10;29.30;;;;;;5095371;28;20234;-70
2022/07/05 07:54:37;;;;;;;8.20;4.13;;;33.40;31.10;;;;;;5094852;28;20507;-70
2022/07/05 07:57:04;;;;;;;7.00;3.80;;;32.30;36.40;;;;;;5093988;28;20215;-71
2022/07/05 07:59:34;;;;;;;7.35;3.88;;;31.10;42.00;;;;;;5095212;28;20171;-69
2022/07/05 08:02:00;;;;;;;7.63;3.75;;;30.20;63.30;;;;;;5095355;28;20176;-70
2022/07/05 08:04:25;;;;;;;5.63;3.47;;;30.00;73.70;;;;;;5094616;28;20172;-71
2022/07/05 08:06:51;;;;;;;6.90;3.50;;;29.90;89.60;;;;;;5095308;28;20317;-70
2022/07/05 08:09:17;;;;;;;8.57;4.05;;;29.30;92.50;;;;;;5094560;28;20622;-71
2022/07/05 08:11:44;;;;;;;6.35;4.00;;;29.40;99.90;;;;;;5095384;28;20172;-69
2022/07/05 08:14:09;;;;;;;6.53;4.03;;;29.60;99.90;;;;;;5095111;28;20168;-70
2022/07/05 08:16:35;;;;;;;10.57;3.90;;;29.70;99.90;;;;;;5094961;28;20249;-70
2022/07/05 08:21:47;;;;;;;8.90;4.35;;;29.60;99.90;;;;;;5094553;28;20241;-70
2022/07/05 08:24:14;;;;;;;11.85;4.30;;;29.30;99.90;;;;;;5094142;28;20252;-70
2022/07/05 08:26:41;;;;;;;7.38;4.32;;;28.70;99.90;;;;;;5094839;28;20247;-70
2022/07/05 08:29:10;;;;;;;9.15;4.20;;;28.60;99.90;;;;;;5094299;28;20251;-69
2022/07/05 08:31:39;;;;;;;7.78;4.47;;;28.50;99.90;;;;;;5094457;28;20202;-69
2022/07/05 08:34:04;;;;;;;6.78;4.32;;;28.60;99.90;;;;;;5094516;28;20183;-71
2022/07/05 08:36:30;;;;;;;6.72;4.20;;;28.60;99.90;;;;;;5093065;28;20212;-70
2022/07/05 08:38:56;;;;;;;9.05;4.40;;;29.30;99.90;;;;;;5094798;28;20677;-71
2022/07/05 08:41:25;;;;;;;7.53;5.53;;;30.30;99.90;;;;;;5094398;28;20176;-70
2022/07/05 08:43:51;;;;;;;9.55;6.15;;;29.80;99.90;;;;;;5093548;28;20172;-71
2022/07/05 08:46:18;;;;;;;11.98;7.30;;;29.90;99.90;;;;;;5094641;28;20172;-71
2022/07/05 08:48:50;;;;;;;12.60;6.20;;;29.80;99.90;;;;;;5094657;28;20233;-71
2022/07/05 08:51:18;;;;;;;14.68;5.70;;;31.50;99.90;;;;;;5093956;28;20191;-71
2022/07/05 08:53:45;;;;;;;11.02;6.07;;;32.50;96.90;;;;;;5094092;28;20265;-71
2022/07/05 08:56:12;;;;;;;6.72;4.45;;;33.60;86.50;;;;;;5094272;28;20307;-71
2022/07/05 08:58:39;;;;;;;6.30;4.50;;;33.60;63.40;;;;;;5094204;28;20627;-70
2022/07/05 09:01:06;;;;;;;5.90;3.97;;;34.70;50.20;;;;;;5088647;28;20203;-70
2022/07/05 09:03:34;;;;;;;7.57;4.05;;;34.90;46.50;;;;;;5076025;28;20219;-70
2022/07/05 09:06:03;;;;;;;6.93;3.70;;;34.70;39.90;;;;;;5073380;28;20229;-70
2022/07/05 09:08:38;;;;;;;7.65;3.47;;;34.00;42.30;;;;;;5073126;28;20339;-70
2022/07/05 09:11:05;;;;;;;5.25;3.55;;;33.20;42.40;;;;;;5073429;28;20635;-70
2022/07/05 09:13:35;;;;;;;4.47;3.22;;;32.80;46.20;;;;;;5073037;28;20638;-71
2022/07/05 09:16:01;;;;;;;8.98;3.13;;;33.50;47.40;;;;;;5073516;28;20164;-70
2022/07/05 09:18:42;;;;;;;5.53;3.38;;;32.70;45.10;;;;;;5073421;28;20647;-70
2022/07/05 09:21:25;;;;;;;4.78;3.28;;;32.10;50.80;;;;;;5073335;28;20586;-70
2022/07/05 09:23:57;;;;;;;9.82;4.43;;;32.30;52.80;;;;;;5073440;28;20226;-70
2022/07/05 09:26:48;;;;;;;6.78;3.65;;;31.90;84.10;;;;;;5073147;28;20169;-70
2022/07/05 09:29:20;;;;;;;7.65;3.60;;;32.90;55.80;;;;;;5076368;28;20168;-70
2022/07/05 09:31:48;;;;;;;6.18;3.25;;;32.90;51.80;;;;;;5093648;28;20176;-70
2022/07/05 09:34:19;;;;;;;6.18;4.07;;;33.20;53.80;;;;;;5092858;28;20320;-70
2022/07/05 09:36:50;;;;;;;11.57;5.53;;;33.60;51.10;;;;;;5092805;28;20200;-70
2022/07/05 09:39:17;;;;;;;6.68;4.20;;;33.90;43.50;;;;;;5093076;28;20172;-70
2022/07/05 09:41:42;;;;;;;4.10;3.70;;;34.00;38.50;;;;;;5093634;28;20171;-70
2022/07/05 09:44:08;;;;;;;8.38;4.18;;;33.30;41.80;;;;;;5086498;28;20659;-70
2022/07/05 09:46:34;;;;;;;5.07;3.50;;;32.70;41.30;;;;;;5082179;28;20160;-70
2022/07/05 09:49:00;;;;;;;8.05;3.13;;;32.20;47.30;;;;;;5091125;28;20258;-70
2022/07/05 09:51:26;;;;;;;3.97;3.00;;;33.10;45.60;;;;;;5093459;28;20196;-69
2022/07/05 09:53:55;;;;;;;4.97;2.85;;;33.10;37.90;;;;;;5093164;28;20225;-69
2022/07/05 09:56:21;;;;;;;6.40;3.97;;;32.90;38.40;;;;;;5093322;28;20647;-70
2022/07/05 09:58:47;;;;;;;6.63;3.58;;;32.40;36.70;;;;;;5092497;28;20199;-69
2022/07/05 10:01:29;;;;;;;4.97;3.25;;;32.50;43.00;;;;;;5092458;28;20164;-69
2022/07/05 10:04:03;;;;;;;5.13;3.25;;;32.60;40.90;;;;;;5092625;28;20172;-69
2022/07/05 10:06:32;;;;;;;6.07;3.55;;;32.50;39.10;;;;;;5092755;28;20657;-69
2022/07/05 10:08:58;;;;;;;4.43;3.70;;;32.00;42.40;;;;;;5092852;28;20695;-68
2022/07/05 10:11:24;;;;;;;6.38;3.85;;;31.80;41.70;;;;;;5092172;28;20473;-68
2022/07/05 10:13:54;;;;;;;4.63;3.85;;;30.60;48.60;;;;;;5092390;28;20202;-68
2022/07/05 10:16:21;;;;;;;5.10;3.60;;;30.80;53.20;;;;;;5092821;28;20659;-69
2022/07/05 10:18:51;;;;;;;3.25;2.92;;;31.50;55.50;;;;;;5092950;28;20171;-69
2022/07/05 10:21:18;;;;;;;4.85;3.00;;;32.60;48.10;;;;;;5087511;28;20176;-69
2022/07/05 10:23:53;;;;;;;5.75;2.42;;;33.50;33.90;;;;;;5077933;28;20223;-69
2022/07/05 10:26:20;;;;;;;4.07;3.67;;;33.90;27.30;;;;;;5072317;28;20164;-69
2022/07/05 10:28:49;;;;;;;4.95;2.33;;;33.60;24.60;;;;;;5072656;28;20177;-69
2022/07/05 10:31:17;;;;;;;3.63;2.42;;;33.10;23.50;;;;;;5072254;28;20176;-69
2022/07/05 10:33:43;;;;;;;5.57;3.00;;;32.70;22.10;;;;;;5072251;28;20176;-69
2022/07/05 10:36:13;;;;;;;5.40;2.45;;;32.30;24.80;;;;;;5072663;28;20177;-69
2022/07/05 10:38:47;;;;;;;4.95;2.97;;;31.30;28.00;;;;;;5071137;28;20184;-69
2022/07/05 10:41:19;;;;;;;4.18;2.90;;;30.60;34.90;;;;;;5072557;28;20169;-69
2022/07/05 10:43:45;;;;;;;2.92;2.03;;;30.10;42.10;;;;;;5071707;28;20164;-69
2022/07/05 10:46:17;;;;;;;3.55;2.33;;;29.50;47.20;;;;;;5071040;28;20183;-69
2022/07/05 10:48:42;;;;;;;4.43;2.47;;;29.30;53.90;;;;;;5071310;28;20176;-69
2022/07/05 10:51:12;;;;;;;4.50;2.53;;;29.80;54.40;;;;;;5072014;28;20722;-69
2022/07/05 10:53:37;;;;;;;17.90;5.43;;;30.40;75.60;;;;;;5070897;28;20229;-69
2022/07/05 10:56:03;;;;;;;4.18;2.35;;;30.20;53.70;;;;;;5071368;28;20273;-69
2022/07/05 10:58:32;;;;;;;6.07;2.53;;;29.60;56.50;;;;;;5071176;28;20180;-69
2022/07/05 11:01:23;;;;;;;4.28;2.20;;;29.40;61.80;;;;;;5072455;28;20204;-69
2022/07/05 11:04:00;;;;;;;3.20;2.20;;;28.80;65.20;;;;;;5070754;28;20256;-69
2022/07/05 11:06:28;;;;;;;3.55;2.10;;;28.80;69.20;;;;;;5071709;28;20175;-69
2022/07/05 11:08:59;;;;;;;3.22;1.92;;;28.70;76.30;;;;;;5071472;28;20242;-68
2022/07/05 11:11:35;;;;;;;5.60;2.10;;;28.30;81.80;;;;;;5072064;28;20169;-68
2022/07/05 11:14:02;;;;;;;4.95;2.10;;;28.30;88.80;;;;;;5071125;28;20531;-69
2022/07/05 11:16:35;;;;;;;3.80;1.88;;;27.90;93.80;;;;;;5070059;28;20200;-68
2022/07/05 11:19:06;;;;;;;4.45;1.92;;;28.20;99.90;;;;;;5079130;28;20176;-69
2022/07/05 11:21:33;;;;;;;2.65;2.03;;;28.30;98.40;;;;;;5091833;28;20700;-68
2022/07/05 11:24:23;;;;;;;3.38;2.20;;;28.90;95.50;;;;;;5095367;28;20172;-68
2022/07/05 11:26:52;;;;;;;5.95;2.00;;;29.70;90.10;;;;;;5085717;28;20267;-69
2022/07/05 11:29:46;;;;;;;3.67;2.45;;;30.10;77.20;;;;;;5096015;28;20172;-68
2022/07/05 11:32:13;;;;;;;4.15;2.20;;;30.20;65.60;;;;;;5093970;28;20233;-68
2022/07/05 11:34:40;;;;;;;4.72;2.20;;;30.30;58.80;;;;;;5096010;28;20156;-68
2022/07/05 11:37:24;;;;;;;5.72;2.83;;;30.40;62.90;;;;;;5095882;28;20206;-68
2022/07/05 11:40:11;;;;;;;2.67;1.65;;;30.20;61.60;;;;;;5094809;28;20217;-68
2022/07/05 11:42:45;;;;;;;5.50;2.05;;;29.10;59.90;;;;;;5094715;28;20214;-68
2022/07/05 11:45:11;;;;;;;7.13;2.25;;;29.00;68.20;;;;;;5095370;28;20164;-69
2022/07/05 11:47:37;;;;;;;5.18;3.05;;;28.90;72.50;;;;;;5096120;28;20525;-68
2022/07/05 11:50:03;;;;;;;3.38;2.50;;;28.50;82.40;;;;;;5095407;28;20667;-69
2022/07/05 11:52:31;;;;;;;5.03;2.30;;;28.10;93.00;;;;;;5094976;28;20251;-68
2022/07/05 11:54:58;;;;;;;7.40;2.13;;;28.10;99.90;;;;;;5094093;28;20171;-68
2022/07/05 11:57:24;;;;;;;5.63;2.78;;;28.30;99.90;;;;;;5095662;28;20222;-69
2022/07/05 11:59:50;;;;;;;9.55;2.63;;;28.40;99.90;;;;;;5095107;28;20546;-68
2022/07/05 12:02:17;;;;;;;10.85;3.22;;;28.40;99.90;;;;;;5095572;28;20179;-68
2022/07/05 12:04:50;;;;;;;7.88;2.65;;;28.60;99.90;;;;;;5094841;28;20164;-69
2022/07/05 12:07:29;;;;;;;3.47;2.75;;;28.90;98.80;;;;;;5095354;28;20199;-68
2022/07/05 12:12:42;;;;;;;3.28;2.83;;;29.30;90.00;;;;;;5094983;28;20171;-69
2022/07/05 12:15:13;;;;;;;7.82;3.45;;;29.10;91.60;;;;;;5084161;28;20179;-68
2022/07/05 12:17:41;;;;;;;5.28;2.30;;;28.40;94.30;;;;;;5073819;28;20216;-68
2022/07/05 12:20:09;;;;;;;5.00;2.60;;;28.00;99.90;;;;;;5073905;28;20180;-68
2022/07/05 12:22:39;;;;;;;4.55;2.63;;;28.00;99.90;;;;;;5072385;28;20179;-68
2022/07/05 12:25:07;;;;;;;6.68;3.30;;;28.10;99.90;;;;;;5072436;28;20249;-68
2022/07/05 12:27:38;;;;;;;5.85;3.13;;;27.90;99.90;;;;;;5072613;28;20646;-69
2022/07/05 12:30:06;;;;;;;6.43;3.42;;;28.00;99.90;;;;;;5072459;28;20646;-69
2022/07/05 12:32:32;;;;;;;6.90;2.97;;;27.80;99.90;;;;;;5086636;28;20172;-68
2022/07/05 12:34:58;;;;;;;6.55;2.90;;;27.50;99.90;;;;;;5074945;28;20184;-68
2022/07/05 12:37:26;;;;;;;4.18;2.80;;;27.60;99.90;;;;;;5074196;28;20196;-68
2022/07/05 12:40:06;;;;;;;7.30;3.40;;;27.70;99.90;;;;;;5071508;28;20187;-68
2022/07/05 12:42:37;;;;;;;5.68;3.00;;;27.50;99.90;;;;;;5085528;28;20198;-68
2022/07/05 12:45:10;;;;;;;4.40;2.50;;;27.50;99.90;;;;;;5093118;28;20282;-69
2022/07/05 12:47:57;;;;;;;5.78;2.72;;;27.90;99.90;;;;;;5073656;28;20176;-69
2022/07/05 12:50:24;;;;;;;3.38;2.95;;;27.80;99.90;;;;;;5073646;28;20189;-68
2022/07/05 12:59:10;;;;;;;9.55;3.22;;;27.30;99.90;;;;;;5073102;28;20298;-69
2022/07/05 13:01:40;;;;;;;6.35;3.22;;;27.10;99.90;;;;;;4991858;28;20278;-69